Time;durP1;ratioP1;P1;durP2;ratioP2;P2;SDS_P1;SDS_P2;PMS_P1;PMS_P2;Temp;Humidity;BMP_temperature;BMP_pressure;BME280_temperature;BME280_humidity;BME280_pressure;Samples;Min_cycle;Max_cycle;Signal;HPM_P1;HPM_P2
2022/03/22 00:00:57;;;;;;;18.58;11.70;;;2.80;99.90;;;;;;5070970;28;20029;-69
2022/03/22 00:03:26;;;;;;;19.00;11.13;;;2.80;99.90;;;;;;5071499;28;20386;-69
2022/03/22 00:05:52;;;;;;;19.00;11.73;;;2.80;99.90;;;;;;5071326;28;20035;-70
2022/03/22 00:08:18;;;;;;;21.98;11.68;;;2.80;99.90;;;;;;5057608;28;20025;-69
2022/03/22 00:10:44;;;;;;;19.85;11.88;;;2.80;99.90;;;;;;5051924;28;20036;-69
2022/03/22 00:13:10;;;;;;;18.08;11.13;;;2.80;99.90;;;;;;5050712;28;20613;-70
2022/03/22 00:15:37;;;;;;;18.50;10.70;;;2.90;99.90;;;;;;5051730;28;20116;-69
2022/03/22 00:18:03;;;;;;;21.27;11.48;;;2.80;99.90;;;;;;5043511;28;20435;-69
2022/03/22 00:20:29;;;;;;;17.27;11.13;;;2.80;99.90;;;;;;5071764;28;20033;-69
2022/03/22 00:22:55;;;;;;;19.25;11.95;;;2.70;99.90;;;;;;5070398;28;20029;-70
2022/03/22 00:25:21;;;;;;;21.38;12.32;;;2.70;99.90;;;;;;5071047;28;20024;-69
2022/03/22 00:27:57;;;;;;;18.52;12.45;;;2.60;99.90;;;;;;5071082;28;20024;-69
2022/03/22 00:30:24;;;;;;;20.20;11.88;;;2.60;99.90;;;;;;5071529;28;20020;-69
2022/03/22 00:32:54;;;;;;;18.70;11.10;;;2.60;99.90;;;;;;5070764;28;20039;-68
2022/03/22 00:35:25;;;;;;;19.02;11.00;;;2.50;99.90;;;;;;5071268;28;20021;-67
2022/03/22 00:37:56;;;;;;;21.00;11.10;;;2.40;99.90;;;;;;5051539;28;20035;-70
2022/03/22 00:40:22;;;;;;;22.08;11.93;;;2.40;99.90;;;;;;5071149;28;20025;-68
2022/03/22 00:42:52;;;;;;;18.95;11.48;;;2.30;99.90;;;;;;5045058;28;20038;-68
2022/03/22 00:45:18;;;;;;;;;;;2.20;99.90;;;;;;5033781;28;20159;-68
2022/03/22 00:47:49;;;;;;;20.02;11.38;;;2.20;99.90;;;;;;5058918;28;19946;-69
2022/03/22 00:50:17;;;;;;;20.88;11.65;;;2.20;99.90;;;;;;5070211;28;20072;-68
2022/03/22 00:52:43;;;;;;;21.98;11.77;;;2.20;99.90;;;;;;5070776;28;20048;-68
2022/03/22 00:55:12;;;;;;;22.58;11.63;;;2.20;99.90;;;;;;5070166;28;20024;-68
2022/03/22 00:57:39;;;;;;;20.77;11.80;;;2.20;99.90;;;;;;5064835;28;20024;-68
2022/03/22 01:00:06;;;;;;;19.20;10.85;;;2.10;99.90;;;;;;5050609;28;20470;-68
2022/03/22 01:02:45;;;;;;;19.65;11.57;;;2.00;99.90;;;;;;5051565;28;20036;-68
2022/03/22 01:05:13;;;;;;;21.75;11.98;;;2.00;99.90;;;;;;5055741;28;20111;-68
2022/03/22 01:07:41;;;;;;;18.33;11.48;;;2.00;99.90;;;;;;5074614;28;20032;-68
2022/03/22 01:10:09;;;;;;;19.17;11.80;;;1.90;99.90;;;;;;5069838;28;20025;-68
2022/03/22 01:12:36;;;;;;;18.77;11.60;;;1.90;99.90;;;;;;5036753;28;20071;-68
2022/03/22 01:15:09;;;;;;;18.65;11.07;;;1.80;99.90;;;;;;5053455;28;20033;-68
2022/03/22 01:17:35;;;;;;;19.90;11.25;;;1.80;99.90;;;;;;5054488;28;20044;-68
2022/03/22 01:20:01;;;;;;;17.50;11.25;;;1.70;99.90;;;;;;5053741;28;20029;-68
2022/03/22 01:22:27;;;;;;;22.20;11.95;;;1.70;99.90;;;;;;5054861;28;20516;-68
2022/03/22 01:24:53;;;;;;;20.50;12.18;;;1.60;99.90;;;;;;5053777;28;20033;-69
2022/03/22 01:27:22;;;;;;;19.80;11.25;;;1.60;99.90;;;;;;5054024;28;20024;-68
2022/03/22 01:29:49;;;;;;;19.65;11.75;;;1.50;99.90;;;;;;5054225;28;20033;-68
2022/03/22 01:32:15;;;;;;;20.20;12.27;;;1.50;99.90;;;;;;5053742;28;20040;-68
2022/03/22 01:34:44;;;;;;;19.20;11.60;;;1.50;99.90;;;;;;5068410;28;20054;-68
2022/03/22 01:37:11;;;;;;;19.65;11.60;;;1.50;99.90;;;;;;5073354;28;20035;-68
2022/03/22 01:39:37;;;;;;;20.63;11.55;;;1.60;99.90;;;;;;5074108;28;20029;-68
2022/03/22 01:42:03;;;;;;;19.05;11.70;;;1.50;99.90;;;;;;5073142;28;20035;-68
2022/03/22 01:44:29;;;;;;;20.05;11.95;;;1.40;99.90;;;;;;5065073;28;20021;-68
2022/03/22 01:47:03;;;;;;;20.45;12.73;;;1.40;99.90;;;;;;5053550;28;20409;-69
2022/03/22 01:49:29;;;;;;;20.52;11.80;;;1.30;99.90;;;;;;5053700;28;20033;-68
2022/03/22 01:51:56;;;;;;;21.25;12.05;;;1.30;99.90;;;;;;5053569;28;20104;-69
2022/03/22 01:54:22;;;;;;;23.75;12.27;;;1.20;99.90;;;;;;5053495;28;20029;-68
2022/03/22 01:56:49;;;;;;;21.83;12.70;;;1.30;99.90;;;;;;5053500;28;20385;-68
2022/03/22 01:59:15;;;;;;;23.45;13.35;;;1.30;99.90;;;;;;5053963;28;20029;-68
2022/03/22 02:07:14;;;;;;;20.65;12.10;;;1.30;99.90;;;;;;5071974;28;20085;-68
2022/03/22 02:09:41;;;;;;;23.23;12.35;;;1.30;99.90;;;;;;5073107;28;20033;-68
2022/03/22 02:12:07;;;;;;;22.70;12.00;;;1.30;99.90;;;;;;5072536;28;20025;-69
2022/03/22 02:14:33;;;;;;;22.08;12.98;;;1.30;99.90;;;;;;5054623;28;20036;-68
2022/03/22 02:16:59;;;;;;;22.58;12.38;;;1.30;99.90;;;;;;5052444;28;20024;-70
2022/03/22 02:19:25;;;;;;;21.58;12.70;;;1.20;99.90;;;;;;5053290;28;20091;-68
2022/03/22 02:22:00;;;;;;;23.00;13.18;;;1.10;99.90;;;;;;5053396;28;20037;-68
2022/03/22 02:24:26;;;;;;;24.75;13.60;;;1.10;99.90;;;;;;5059998;28;20029;-68
2022/03/22 02:26:52;;;;;;;26.58;13.43;;;1.00;99.90;;;;;;5053077;28;20083;-68
2022/03/22 02:29:18;;;;;;;25.02;14.75;;;1.00;99.90;;;;;;5052270;28;20025;-68
2022/03/22 02:31:43;;;;;;;30.13;14.80;;;1.10;99.90;;;;;;5053139;28;20025;-68
2022/03/22 02:34:09;;;;;;;25.45;14.93;;;1.10;99.90;;;;;;5051804;28;20033;-68
2022/03/22 02:36:35;;;;;;;31.00;16.00;;;1.10;99.90;;;;;;5052930;28;20132;-68
2022/03/22 02:39:00;;;;;;;25.80;14.27;;;1.20;99.90;;;;;;5052068;28;20029;-69
2022/03/22 02:41:26;;;;;;;24.98;13.88;;;1.10;99.90;;;;;;5053127;28;20053;-68
2022/03/22 02:43:53;;;;;;;24.63;14.30;;;1.10;99.90;;;;;;5067410;28;20063;-69
2022/03/22 02:46:19;;;;;;;24.20;13.35;;;1.10;99.90;;;;;;5066280;28;20049;-69
2022/03/22 02:48:46;;;;;;;26.65;15.05;;;1.10;99.90;;;;;;5054082;28;20043;-69
2022/03/22 02:51:12;;;;;;;25.55;13.82;;;1.00;99.90;;;;;;5065855;28;20372;-69
2022/03/22 02:53:38;;;;;;;24.85;13.10;;;1.10;99.90;;;;;;5052722;28;20032;-69
2022/03/22 02:56:05;;;;;;;26.73;14.50;;;1.10;99.90;;;;;;5051829;28;20393;-69
2022/03/22 02:58:30;;;;;;;26.83;14.43;;;1.10;99.90;;;;;;5052443;28;20028;-69
2022/03/22 03:00:56;;;;;;;23.92;14.05;;;1.10;99.90;;;;;;5055370;28;20024;-71
2022/03/22 03:03:22;;;;;;;22.83;13.90;;;1.00;99.90;;;;;;5072374;28;20469;-69
2022/03/22 03:05:51;;;;;;;24.17;14.55;;;1.00;99.90;;;;;;5072378;28;20024;-69
2022/03/22 03:08:18;;;;;;;26.30;14.40;;;0.90;99.90;;;;;;5071613;28;20025;-69
2022/03/22 03:10:45;;;;;;;23.27;13.98;;;0.90;99.90;;;;;;5059877;28;20131;-69
2022/03/22 03:13:11;;;;;;;21.10;13.50;;;0.80;99.90;;;;;;5033574;28;20025;-69
2022/03/22 03:15:37;;;;;;;20.08;11.73;;;0.80;99.90;;;;;;5051927;28;20039;-69
2022/03/22 03:18:04;;;;;;;26.13;14.25;;;0.70;99.90;;;;;;5051608;28;20075;-69
2022/03/22 03:20:30;;;;;;;22.10;13.25;;;0.70;99.90;;;;;;5071748;28;20028;-69
2022/03/22 03:22:56;;;;;;;28.77;14.30;;;0.70;99.90;;;;;;5058982;28;20061;-71
2022/03/22 03:25:22;;;;;;;22.02;13.40;;;0.70;99.90;;;;;;5050109;28;20076;-68
2022/03/22 03:27:49;;;;;;;25.40;13.45;;;0.70;99.90;;;;;;5050963;28;20036;-69
2022/03/22 03:30:15;;;;;;;21.58;12.70;;;0.70;99.90;;;;;;5048413;28;20040;-70
2022/03/22 03:32:41;;;;;;;24.67;13.88;;;0.70;99.90;;;;;;5051304;28;20033;-69
2022/03/22 03:35:07;;;;;;;23.05;13.48;;;0.60;99.90;;;;;;5049888;28;20025;-70
2022/03/22 03:37:35;;;;;;;24.35;14.02;;;0.60;99.90;;;;;;5033201;28;20029;-70
2022/03/22 03:40:04;;;;;;;20.98;12.88;;;0.60;99.90;;;;;;5031961;28;20048;-70
2022/03/22 03:42:30;;;;;;;22.67;13.18;;;0.60;99.90;;;;;;5050366;28;20029;-70
2022/03/22 03:47:40;;;;;;;21.05;13.30;;;0.50;99.90;;;;;;5051235;28;20082;-69
2022/03/22 03:50:07;;;;;;;25.38;13.90;;;0.50;99.90;;;;;;5049536;28;20049;-70
2022/03/22 03:52:35;;;;;;;22.15;13.48;;;0.50;99.90;;;;;;5051732;28;20029;-69
2022/03/22 03:55:04;;;;;;;22.90;13.75;;;0.40;99.90;;;;;;5050999;28;20481;-70
2022/03/22 03:57:29;;;;;;;21.42;13.30;;;0.40;99.90;;;;;;5051626;28;20033;-69
2022/03/22 03:59:56;;;;;;;24.67;13.07;;;0.40;99.90;;;;;;5052726;28;21947;-70
2022/03/22 04:02:22;;;;;;;24.17;13.00;;;0.50;99.90;;;;;;5051295;28;20037;-69
2022/03/22 04:04:51;;;;;;;26.40;13.88;;;0.50;99.90;;;;;;5055465;28;20035;-70
2022/03/22 04:07:19;;;;;;;22.20;13.80;;;0.50;99.90;;;;;;5070828;28;20043;-70
2022/03/22 04:09:45;;;;;;;25.45;13.45;;;0.40;99.90;;;;;;5071535;28;20364;-70
2022/03/22 04:12:12;;;;;;;28.92;14.88;;;0.40;99.90;;;;;;5052630;28;20454;-70
2022/03/22 04:14:37;;;;;;;24.95;14.60;;;0.40;99.90;;;;;;5053732;28;20090;-70
2022/03/22 04:17:04;;;;;;;26.35;14.70;;;0.40;99.90;;;;;;5070580;28;20033;-70
2022/03/22 04:19:30;;;;;;;24.80;13.75;;;0.40;99.90;;;;;;5071439;28;20026;-70
2022/03/22 04:21:56;;;;;;;24.48;14.13;;;0.50;99.90;;;;;;5055545;28;20032;-69
2022/03/22 04:24:22;;;;;;;21.42;14.10;;;0.50;99.90;;;;;;5050581;28;20029;-70
2022/03/22 04:26:48;;;;;;;26.70;14.82;;;0.50;99.90;;;;;;5071234;28;20090;-70
2022/03/22 04:34:46;;;;;;;24.35;13.82;;;0.40;99.90;;;;;;5051675;28;20027;-70
2022/03/22 04:37:13;;;;;;;25.95;15.45;;;0.40;99.90;;;;;;5070439;28;20039;-69
2022/03/22 04:39:41;;;;;;;23.77;13.90;;;0.40;99.90;;;;;;5053808;28;20090;-70
2022/03/22 04:42:07;;;;;;;22.60;13.52;;;0.30;99.90;;;;;;5073020;28;20041;-70
2022/03/22 04:44:34;;;;;;;26.42;14.02;;;0.30;99.90;;;;;;5065983;28;20480;-70
2022/03/22 04:47:00;;;;;;;27.08;15.15;;;0.20;99.90;;;;;;5073425;28;20373;-71
2022/03/22 04:49:27;;;;;;;27.23;14.75;;;0.20;99.90;;;;;;5074522;28;20113;-69
2022/03/22 04:57:24;;;;;;;26.52;14.52;;;0.20;99.90;;;;;;5034443;28;20044;-70
2022/03/22 04:59:50;;;;;;;27.23;15.43;;;0.10;99.90;;;;;;5050920;28;20086;-70
2022/03/22 05:02:15;;;;;;;24.48;14.75;;;0.10;99.90;;;;;;5053974;28;20033;-69
2022/03/22 05:04:42;;;;;;;27.00;15.95;;;0.10;99.90;;;;;;5065345;28;20350;-70
2022/03/22 05:07:08;;;;;;;25.45;15.25;;;0.10;99.90;;;;;;5054060;28;20048;-70
2022/03/22 05:09:33;;;;;;;31.50;16.55;;;0.20;99.90;;;;;;5054696;28;20021;-70
2022/03/22 05:12:00;;;;;;;29.27;16.98;;;0.20;99.90;;;;;;5070099;28;20040;-71
2022/03/22 05:14:26;;;;;;;29.65;15.98;;;0.30;99.90;;;;;;5074247;28;20033;-70
2022/03/22 05:16:52;;;;;;;26.85;14.57;;;0.30;99.90;;;;;;5072003;28;20043;-70
2022/03/22 05:19:18;;;;;;;27.75;14.82;;;0.30;99.90;;;;;;5073575;28;20036;-70
2022/03/22 05:21:44;;;;;;;25.48;14.38;;;0.30;99.90;;;;;;5074321;28;20039;-69
2022/03/22 05:24:11;;;;;;;22.80;14.20;;;0.20;99.90;;;;;;5073460;28;20458;-70
2022/03/22 05:26:37;;;;;;;25.70;14.68;;;0.20;99.90;;;;;;5055753;28;20522;-69
2022/03/22 05:29:04;;;;;;;28.23;16.00;;;0.20;99.90;;;;;;5054054;28;20029;-71
2022/03/22 05:31:31;;;;;;;24.38;14.70;;;0.20;99.90;;;;;;5053858;28;20115;-69
2022/03/22 05:33:58;;;;;;;26.67;14.85;;;0.20;99.90;;;;;;5054187;28;20033;-69
2022/03/22 05:36:23;;;;;;;29.02;15.48;;;0.20;99.90;;;;;;5053559;28;20025;-69
2022/03/22 05:38:49;;;;;;;26.42;15.07;;;0.20;99.90;;;;;;5064201;28;20432;-69
2022/03/22 05:41:15;;;;;;;25.88;15.80;;;0.20;99.90;;;;;;5073363;28;20032;-69
2022/03/22 05:43:42;;;;;;;24.75;14.85;;;0.20;99.90;;;;;;5072061;28;20025;-69
2022/03/22 05:46:09;;;;;;;27.40;15.60;;;0.20;99.90;;;;;;5053363;28;20501;-69
2022/03/22 05:48:38;;;;;;;25.15;15.00;;;0.20;99.90;;;;;;5053770;28;20068;-69
2022/03/22 05:51:04;;;;;;;25.33;14.20;;;0.20;99.90;;;;;;5052312;28;20084;-72
2022/03/22 05:53:29;;;;;;;27.58;15.15;;;0.30;99.90;;;;;;5053759;28;20079;-70
2022/03/22 05:55:55;;;;;;;23.77;14.98;;;0.30;99.90;;;;;;5065697;28;20497;-69
2022/03/22 05:58:21;;;;;;;26.70;14.25;;;0.30;99.90;;;;;;5073239;28;20606;-70
2022/03/22 06:00:47;;;;;;;27.05;15.48;;;0.40;99.90;;;;;;5073322;28;20482;-71
2022/03/22 06:03:13;;;;;;;28.63;16.27;;;0.50;99.90;;;;;;5072749;28;20020;-70
2022/03/22 06:05:39;;;;;;;30.88;15.88;;;0.60;99.90;;;;;;5063591;28;20359;-69
2022/03/22 06:08:05;;;;;;;26.90;14.82;;;0.70;99.90;;;;;;5052678;28;20032;-71
2022/03/22 06:10:31;;;;;;;24.85;14.27;;;0.90;99.90;;;;;;5053763;28;20029;-69
2022/03/22 06:12:57;;;;;;;32.03;16.60;;;1.00;99.90;;;;;;5053464;28;20466;-69
2022/03/22 06:15:29;;;;;;;28.45;14.93;;;1.10;99.90;;;;;;5060954;28;20055;-70
2022/03/22 06:18:06;;;;;;;27.17;14.80;;;1.10;99.90;;;;;;5073891;28;20122;-70
2022/03/22 06:20:33;;;;;;;29.85;16.08;;;1.20;99.90;;;;;;5070529;28;20078;-70
2022/03/22 06:23:01;;;;;;;29.23;15.18;;;1.30;99.90;;;;;;5073453;28;20477;-70
2022/03/22 06:25:27;;;;;;;26.08;15.65;;;1.30;99.90;;;;;;5065516;28;20504;-71
2022/03/22 06:27:54;;;;;;;29.73;15.27;;;1.40;99.90;;;;;;5053130;28;20028;-70
2022/03/22 06:30:20;;;;;;;25.90;14.93;;;1.40;99.90;;;;;;5052305;28;20448;-71
2022/03/22 06:32:49;;;;;;;25.88;14.30;;;1.50;99.90;;;;;;5058180;28;20452;-70
2022/03/22 06:35:20;;;;;;;26.90;15.40;;;1.50;99.90;;;;;;5066309;28;20025;-75
2022/03/22 06:37:47;;;;;;;26.02;15.02;;;1.60;99.90;;;;;;5052624;28;20872;-72
2022/03/22 06:40:15;;;;;;;27.45;15.77;;;1.60;99.90;;;;;;5052026;28;20496;-72
2022/03/22 06:42:41;;;;;;;29.48;16.15;;;1.70;99.90;;;;;;5057085;28;20469;-72
2022/03/22 06:45:07;;;;;;;31.60;17.17;;;1.80;99.90;;;;;;5064980;28;20028;-71
2022/03/22 06:47:34;;;;;;;30.25;16.73;;;1.90;99.90;;;;;;5072648;28;20052;-71
2022/03/22 06:50:00;;;;;;;31.83;17.42;;;2.10;99.90;;;;;;5071612;28;20123;-76
2022/03/22 06:52:26;;;;;;;28.75;16.48;;;2.20;99.90;;;;;;5052310;28;20500;-76
2022/03/22 06:54:52;;;;;;;29.08;16.55;;;2.40;99.90;;;;;;5056768;28;20086;-73
2022/03/22 06:57:19;;;;;;;29.77;17.55;;;2.60;99.90;;;;;;5031705;28;20417;-72
2022/03/22 06:59:46;;;;;;;31.30;17.80;;;2.80;99.90;;;;;;5036628;28;20084;-73
2022/03/22 07:02:12;;;;;;;28.17;17.00;;;2.90;99.90;;;;;;5070917;28;20440;-73
2022/03/22 07:04:37;;;;;;;30.60;16.90;;;3.10;99.90;;;;;;5046123;28;20045;-74
2022/03/22 07:07:03;;;;;;;29.65;16.20;;;3.20;99.90;;;;;;5069751;28;20036;-74
2022/03/22 07:09:29;;;;;;;32.42;17.20;;;3.30;99.90;;;;;;5073737;28;20028;-74
2022/03/22 07:11:56;;;;;;;29.48;16.25;;;3.40;99.90;;;;;;5054238;28;20143;-70
2022/03/22 07:14:27;;;;;;;25.88;16.00;;;3.50;99.90;;;;;;5051282;28;20048;-74
2022/03/22 07:16:54;;;;;;;32.65;17.42;;;3.50;99.90;;;;;;5051994;28;20036;-73
2022/03/22 07:19:21;;;;;;;30.50;17.67;;;3.60;99.90;;;;;;5051222;28;20032;-73
2022/03/22 07:21:49;;;;;;;28.48;16.08;;;3.60;99.90;;;;;;5052162;28;20041;-74
2022/03/22 07:24:18;;;;;;;26.42;16.05;;;3.70;99.90;;;;;;5053842;28;20028;-78
2022/03/22 07:26:45;;;;;;;37.03;17.63;;;3.70;99.90;;;;;;5057109;28;20471;-77
2022/03/22 07:29:12;;;;;;;28.35;16.27;;;3.90;99.90;;;;;;5062253;28;20031;-77
2022/03/22 07:31:41;;;;;;;29.27;15.65;;;4.00;99.90;;;;;;5053831;28;20450;-79
2022/03/22 07:34:16;;;;;;;27.77;17.48;;;4.20;99.90;;;;;;5053152;28;20431;-72
2022/03/22 07:36:43;;;;;;;27.17;16.55;;;4.30;99.90;;;;;;5071784;28;20059;-73
2022/03/22 07:39:10;;;;;;;31.92;17.02;;;4.50;99.90;;;;;;5067864;28;20112;-72
2022/03/22 07:41:39;;;;;;;31.92;17.27;;;4.70;99.90;;;;;;5044963;28;20369;-78
2022/03/22 07:44:07;;;;;;;37.45;17.65;;;4.90;99.90;;;;;;5052294;28;20127;-79
2022/03/22 07:46:33;;;;;;;27.15;15.60;;;5.20;99.10;;;;;;5040323;28;20040;-81
2022/03/22 07:54:28;;;;;;;26.50;15.20;;;5.80;96.20;;;;;;5033826;28;20080;-81
2022/03/22 07:56:54;;;;;;;27.88;16.58;;;6.00;95.30;;;;;;5031780;28;20069;-73
2022/03/22 07:59:20;;;;;;;28.55;16.17;;;6.10;95.10;;;;;;5068083;28;20039;-74
2022/03/22 08:01:47;;;;;;;27.05;15.45;;;6.30;94.10;;;;;;5070521;28;20066;-74
2022/03/22 08:04:12;;;;;;;23.90;15.52;;;6.40;93.20;;;;;;5070287;28;20048;-73
2022/03/22 08:06:38;;;;;;;26.90;16.05;;;6.40;92.90;;;;;;5060254;28;20067;-73
2022/03/22 08:09:04;;;;;;;26.70;15.80;;;6.50;92.40;;;;;;5070160;28;20039;-74
2022/03/22 08:11:29;;;;;;;25.92;16.15;;;6.60;92.30;;;;;;5070823;28;20509;-73
2022/03/22 08:13:59;;;;;;;24.70;15.38;;;6.70;92.00;;;;;;5054008;28;20029;-74
2022/03/22 08:16:26;;;;;;;30.27;17.83;;;6.80;91.70;;;;;;5065761;28;20082;-74
2022/03/22 08:18:52;;;;;;;24.63;15.20;;;7.00;91.40;;;;;;5055730;28;20041;-73
2022/03/22 08:21:18;;;;;;;27.30;16.15;;;7.30;89.40;;;;;;5074601;28;20033;-73
2022/03/22 08:23:43;;;;;;;35.55;16.98;;;7.30;89.60;;;;;;5075012;28;20060;-73
2022/03/22 08:26:09;;;;;;;27.25;16.77;;;7.40;90.00;;;;;;5068159;28;20382;-72
2022/03/22 08:28:35;;;;;;;26.35;17.13;;;7.50;88.30;;;;;;5055250;28;20450;-74
2022/03/22 08:31:02;;;;;;;29.60;17.63;;;7.50;88.30;;;;;;5050627;28;20545;-72
2022/03/22 08:33:27;;;;;;;31.20;16.38;;;7.60;87.50;;;;;;5064290;28;20477;-73
2022/03/22 08:35:53;;;;;;;28.73;17.50;;;7.70;87.10;;;;;;5069090;28;20036;-74
2022/03/22 08:38:20;;;;;;;29.92;17.17;;;7.80;87.30;;;;;;5054090;28;20025;-72
2022/03/22 08:40:47;;;;;;;29.58;17.17;;;7.90;86.90;;;;;;5036760;28;20382;-73
2022/03/22 08:43:13;;;;;;;32.95;17.30;;;7.90;85.80;;;;;;5061136;28;20051;-72
2022/03/22 08:45:39;;;;;;;28.42;16.85;;;8.10;86.00;;;;;;5060515;28;20024;-73
2022/03/22 08:48:12;;;;;;;25.42;16.85;;;8.20;84.30;;;;;;5074738;28;20510;-74
2022/03/22 08:50:43;;;;;;;28.33;16.83;;;8.30;84.60;;;;;;5074544;28;20051;-74
2022/03/22 08:53:10;;;;;;;29.48;16.80;;;8.60;99.80;;;;;;5074193;28;20048;-73
2022/03/22 08:55:36;;;;;;;25.50;15.70;;;;;;;;;;5070111;28;20409;-74
2022/03/22 08:58:06;;;;;;;27.05;16.27;;;8.70;98.90;;;;;;5054739;28;20025;-74
2022/03/22 09:00:34;;;;;;;26.92;16.55;;;;;;;;;;5053852;28;20021;-73
2022/03/22 09:03:01;;;;;;;25.85;16.88;;;;;;;;;;5054632;28;20441;-75
2022/03/22 09:08:15;;;;;;;26.67;16.95;;;9.10;98.90;;;;;;5053482;28;20056;-73
2022/03/22 09:10:41;;;;;;;30.88;16.80;;;;;;;;;;5054244;28;20029;-74
2022/03/22 09:13:08;;;;;;;29.75;17.00;;;;;;;;;;5066028;28;20062;-74
2022/03/22 09:15:36;;;;;;;34.50;19.02;;;9.20;76.00;;;;;;5059200;28;20113;-73
2022/03/22 09:18:03;;;;;;;33.45;17.25;;;9.40;75.60;;;;;;5055362;28;20067;-73
2022/03/22 09:20:32;;;;;;;29.00;16.48;;;9.50;78.20;;;;;;5052945;28;20055;-73
2022/03/22 09:23:02;;;;;;;26.57;18.10;;;9.70;75.30;;;;;;5064601;28;20094;-73
2022/03/22 09:25:28;;;;;;;32.33;19.25;;;9.90;73.70;;;;;;5070836;28;20486;-73
2022/03/22 09:27:55;;;;;;;34.53;17.50;;;10.00;73.50;;;;;;5074255;28;20373;-74
2022/03/22 09:30:20;;;;;;;28.40;16.27;;;10.10;73.40;;;;;;5073273;28;20079;-74
2022/03/22 09:32:47;;;;;;;35.83;18.05;;;10.20;72.00;;;;;;5073755;28;20427;-75
2022/03/22 09:35:17;;;;;;;26.38;17.10;;;10.40;73.90;;;;;;5066358;28;20375;-74
2022/03/22 09:37:43;;;;;;;26.58;16.63;;;10.40;71.50;;;;;;5063353;28;20028;-73
2022/03/22 09:40:11;;;;;;;28.55;16.40;;;10.50;72.00;;;;;;5054080;28;20040;-74
2022/03/22 09:42:38;;;;;;;31.23;17.42;;;10.70;72.30;;;;;;5053515;28;20029;-73
2022/03/22 09:45:08;;;;;;;28.02;17.58;;;10.80;71.70;;;;;;5053604;28;20073;-73
2022/03/22 09:47:38;;;;;;;30.50;17.38;;;11.00;70.70;;;;;;5068144;28;20153;-73
2022/03/22 09:50:06;;;;;;;29.92;17.67;;;11.10;71.20;;;;;;5073623;28;20419;-73
2022/03/22 09:52:34;;;;;;;31.10;17.75;;;11.20;69.60;;;;;;5070519;28;20068;-71
2022/03/22 09:55:00;;;;;;;32.95;17.38;;;11.40;71.80;;;;;;5061172;28;20033;-74
2022/03/22 09:57:28;;;;;;;27.65;16.02;;;11.40;68.90;;;;;;5068173;28;20040;-74
2022/03/22 09:59:53;;;;;;;29.08;17.45;;;11.50;67.90;;;;;;5073598;28;20060;-74
2022/03/22 10:02:27;;;;;;;36.53;18.13;;;11.60;69.10;;;;;;5066048;28;20504;-73
2022/03/22 10:04:53;;;;;;;35.80;18.02;;;11.70;67.90;;;;;;5050444;28;20398;-73
2022/03/22 10:07:20;;;;;;;28.33;18.13;;;11.90;67.40;;;;;;5052846;28;20039;-73
2022/03/22 10:09:54;;;;;;;34.85;18.35;;;12.10;66.40;;;;;;5052981;28;20523;-73
2022/03/22 10:12:33;;;;;;;31.13;18.60;;;12.20;66.30;;;;;;5058749;28;20020;-73
2022/03/22 10:15:08;;;;;;;26.02;18.30;;;12.40;84.80;;;;;;5073303;28;20070;-74
2022/03/22 10:17:35;;;;;;;32.80;18.02;;;13.20;77.20;;;;;;5058777;28;20033;-74
2022/03/22 10:20:00;;;;;;;28.17;17.38;;;12.20;82.50;;;;;;5065029;28;20086;-74
2022/03/22 10:22:27;;;;;;;35.60;19.20;;;12.60;70.50;;;;;;5052165;28;20029;-75
2022/03/22 10:24:57;;;;;;;34.60;17.92;;;12.70;71.00;;;;;;5052827;28;20454;-73
2022/03/22 10:27:26;;;;;;;32.78;19.45;;;12.70;71.10;;;;;;5052093;28;20044;-75
2022/03/22 10:29:52;;;;;;;31.00;17.60;;;12.70;70.90;;;;;;5059181;28;20063;-75
2022/03/22 10:32:28;;;;;;;29.42;17.55;;;12.80;73.80;;;;;;5072093;28;20025;-73
2022/03/22 10:34:54;;;;;;;30.98;18.67;;;12.90;70.30;;;;;;5069905;28;20052;-75
2022/03/22 10:37:26;;;;;;;26.60;17.55;;;12.90;61.40;;;;;;5063894;28;20096;-75
2022/03/22 10:39:52;;;;;;;28.05;17.80;;;13.00;66.90;;;;;;5056968;28;20501;-76
2022/03/22 10:42:22;;;;;;;29.17;17.00;;;13.00;60.90;;;;;;5072111;28;20025;-74
2022/03/22 10:44:51;;;;;;;;;;;;;;;;;;5064748;28;20029;-75
2022/03/22 10:47:27;;;;;;;28.73;16.48;;;;;;;;;;5071656;28;19997;-72
2022/03/22 10:50:05;;;;;;;30.48;17.90;;;;;;;;;;5072643;28;20088;-75
2022/03/22 10:52:32;;;;;;;26.63;17.20;;;;;;;;;;5069892;28;20032;-74
2022/03/22 10:54:59;;;;;;;32.65;17.58;;;13.50;53.10;;;;;;5070544;28;20107;-75
2022/03/22 10:57:32;;;;;;;27.33;16.35;;;13.60;54.00;;;;;;5071263;28;20572;-75
2022/03/22 11:00:04;;;;;;;29.27;16.35;;;13.70;51.70;;;;;;5058648;28;20441;-76
2022/03/22 11:02:34;;;;;;;27.17;15.52;;;13.70;51.80;;;;;;5050998;28;20413;-75
2022/03/22 11:05:03;;;;;;;28.98;16.80;;;13.80;52.10;;;;;;5058306;28;20063;-75
2022/03/22 11:07:34;;;;;;;27.17;16.77;;;14.00;51.10;;;;;;5068819;28;20040;-75
2022/03/22 11:10:00;;;;;;;23.20;16.20;;;14.10;50.80;;;;;;5072486;28;20029;-76
2022/03/22 11:12:29;;;;;;;27.50;16.60;;;14.20;50.30;;;;;;5071582;28;20039;-74
2022/03/22 11:14:57;;;;;;;25.95;16.13;;;14.40;49.90;;;;;;5062668;28;20115;-75
2022/03/22 11:17:27;;;;;;;31.90;16.70;;;14.50;50.20;;;;;;5064634;28;20048;-75
2022/03/22 11:19:53;;;;;;;22.75;15.43;;;;;;;;;;5058777;28;20037;-79
2022/03/22 11:22:19;;;;;;;26.92;15.93;;;14.70;49.90;;;;;;5063425;28;20044;-76
2022/03/22 11:24:45;;;;;;;24.23;16.05;;;15.00;49.10;;;;;;5059176;28;20033;-78
2022/03/22 11:27:11;;;;;;;23.02;15.85;;;15.20;49.30;;;;;;5052206;28;20378;-76
2022/03/22 11:29:40;;;;;;;21.67;16.17;;;15.50;47.30;;;;;;5064475;28;20024;-76
2022/03/22 11:34:57;;;;;;;28.55;16.95;;;15.70;45.90;;;;;;5066128;28;20038;-75
2022/03/22 11:37:33;;;;;;;23.52;16.90;;;16.00;44.50;;;;;;5071341;28;20063;-76
2022/03/22 11:42:54;;;;;;;20.52;15.40;;;16.40;45.60;;;;;;5054274;28;20397;-77
2022/03/22 11:45:20;;;;;;;25.73;16.55;;;16.70;43.80;;;;;;5050878;28;20028;-81
2022/03/22 11:47:49;;;;;;;22.35;15.63;;;17.10;42.20;;;;;;5055398;28;20099;-82
2022/03/22 11:50:18;;;;;;;26.42;16.27;;;17.20;42.80;;;;;;5051200;28;20206;-74
2022/03/22 11:52:46;;;;;;;20.55;16.02;;;17.30;42.00;;;;;;5051159;28;20033;-76
2022/03/22 11:55:25;;;;;;;25.05;17.02;;;17.50;41.70;;;;;;5033820;28;20034;-76
2022/03/22 11:57:52;;;;;;;20.00;16.03;;;17.80;41.30;;;;;;5031167;28;20120;-76
2022/03/22 12:00:20;;;;;;;22.88;18.15;;;18.00;41.20;;;;;;5049267;28;20091;-74
2022/03/22 12:02:51;;;;;;;26.05;16.85;;;18.40;40.90;;;;;;5051334;28;20469;-75
2022/03/22 12:05:23;;;;;;;22.02;16.75;;;18.50;41.30;;;;;;5051659;28;20078;-74
2022/03/22 12:07:50;;;;;;;24.77;17.30;;;18.40;41.70;;;;;;5071255;28;20039;-77
2022/03/22 12:10:19;;;;;;;23.60;17.25;;;18.30;41.90;;;;;;5050533;28;20028;-75
2022/03/22 12:12:49;;;;;;;24.73;17.45;;;18.50;42.00;;;;;;5051102;28;20079;-75
2022/03/22 12:15:19;;;;;;;;;;;18.80;40.30;;;;;;5051503;28;20436;-76
2022/03/22 12:17:45;;;;;;;35.13;18.23;;;18.90;40.20;;;;;;5050836;28;20367;-75
2022/03/22 12:20:15;;;;;;;23.00;16.13;;;18.90;40.50;;;;;;5033085;28;20378;-77
2022/03/22 12:22:51;;;;;;;26.98;17.60;;;19.00;40.70;;;;;;5030427;28;20068;-75
2022/03/22 12:25:23;;;;;;;37.20;18.23;;;19.30;40.80;;;;;;5030661;28;20036;-74
2022/03/22 12:27:52;;;;;;;24.77;16.77;;;19.70;39.90;;;;;;5060924;28;20025;-76
2022/03/22 12:30:20;;;;;;;30.35;18.58;;;20.00;39.90;;;;;;5050829;28;20430;-74
2022/03/22 12:32:48;;;;;;;24.10;16.13;;;20.50;38.10;;;;;;5050983;28;20033;-75
2022/03/22 12:35:14;;;;;;;23.67;17.70;;;20.30;38.40;;;;;;5059041;28;20420;-75
2022/03/22 12:37:39;;;;;;;25.25;17.90;;;20.40;38.00;;;;;;5050446;28;20092;-75
2022/03/22 12:40:06;;;;;;;37.72;18.63;;;20.50;38.50;;;;;;5067596;28;20381;-75
2022/03/22 12:42:33;;;;;;;29.63;16.13;;;20.60;38.70;;;;;;5052174;28;20020;-74
2022/03/22 12:44:59;;;;;;;27.58;17.70;;;20.60;38.50;;;;;;5053992;28;20108;-75
2022/03/22 12:47:24;;;;;;;21.77;17.55;;;20.20;38.20;;;;;;5050411;28;20130;-74
2022/03/22 12:49:51;;;;;;;25.42;18.13;;;20.20;37.90;;;;;;5067609;28;20033;-75
2022/03/22 12:52:17;;;;;;;27.63;17.00;;;20.30;38.70;;;;;;5050427;28;20048;-76
2022/03/22 12:54:44;;;;;;;22.88;17.52;;;20.40;39.00;;;;;;5060851;28;20025;-76
2022/03/22 12:57:16;;;;;;;23.23;17.35;;;20.60;38.30;;;;;;5050453;28;20044;-76
2022/03/22 12:59:42;;;;;;;27.15;18.40;;;20.90;38.10;;;;;;5050092;28;20040;-76
2022/03/22 13:02:09;;;;;;;25.77;17.52;;;20.70;38.10;;;;;;5068329;28;20032;-76
2022/03/22 13:04:46;;;;;;;25.75;17.30;;;20.40;38.50;;;;;;5071655;28;20056;-75
2022/03/22 13:07:35;;;;;;;27.85;17.52;;;20.20;38.90;;;;;;5074333;28;20032;-75
2022/03/22 13:12:46;;;;;;;21.70;16.83;;;20.20;38.20;;;;;;5054668;28;20432;-76
2022/03/22 13:15:17;;;;;;;23.58;16.35;;;20.40;38.90;;;;;;5054278;28;20037;-76